createdAt,value
2022-07-29T00:00:13.808Z,100347.94
2022-07-29T00:03:16.801Z,100346.56
2022-07-29T00:06:19.778Z,100343.88
2022-07-29T00:09:22.625Z,100349.59
2022-07-29T00:12:27.040Z,100351.16
2022-07-29T00:15:29.922Z,100342.00
2022-07-29T00:18:33.193Z,100342.81
2022-07-29T00:21:36.141Z,100344.78
2022-07-29T00:24:38.641Z,100347.78
2022-07-29T00:27:41.611Z,100343.03
2022-07-29T00:30:44.381Z,100340.75
2022-07-29T00:33:47.105Z,100345.44
2022-07-29T00:36:49.565Z,100350.91
2022-07-29T00:39:52.333Z,100351.00
2022-07-29T00:42:54.886Z,100347.78
2022-07-29T00:45:57.628Z,100351.47
2022-07-29T00:49:00.316Z,100347.31
2022-07-29T00:52:06.904Z,100341.91
2022-07-29T00:55:12.580Z,100345.91
2022-07-29T00:58:16.047Z,100342.66
2022-07-29T01:01:18.647Z,100341.75
2022-07-29T01:04:22.670Z,100343.53
2022-07-29T01:07:26.871Z,100348.28
2022-07-29T01:10:30.866Z,100339.84
2022-07-29T01:13:34.279Z,100335.41
2022-07-29T01:16:47.211Z,100333.31
2022-07-29T01:20:08.241Z,100331.44
2022-07-29T01:23:32.849Z,100335.84
2022-07-29T01:26:55.496Z,100336.84
2022-07-29T01:30:00.764Z,100333.22
2022-07-29T01:33:09.596Z,100334.53
2022-07-29T01:36:19.680Z,100325.25
2022-07-29T01:39:31.007Z,100324.03
2022-07-29T01:42:39.566Z,100323.94
2022-07-29T01:45:46.094Z,100333.22
2022-07-29T01:48:54.326Z,100331.91
2022-07-29T01:52:06.741Z,100326.62
2022-07-29T01:55:15.038Z,100336.25
2022-07-29T01:58:20.092Z,100331.00
2022-07-29T02:01:25.938Z,100328.16
2022-07-29T02:04:30.500Z,100326.25
2022-07-29T02:07:34.817Z,100327.00
2022-07-29T02:10:40.956Z,100325.25
2022-07-29T02:13:45.311Z,100325.63
2022-07-29T02:16:51.258Z,100330.12
2022-07-29T02:19:58.375Z,100336.44
2022-07-29T02:23:05.390Z,100327.75
2022-07-29T02:26:09.464Z,100323.16
2022-07-29T02:29:16.239Z,100320.12
2022-07-29T02:32:20.358Z,100319.97
2022-07-29T02:35:23.959Z,100323.41
2022-07-29T02:38:47.677Z,100320.12
2022-07-29T02:41:58.954Z,100317.59
2022-07-29T02:45:02.645Z,100315.06
2022-07-29T02:48:11.091Z,100318.53
2022-07-29T02:51:43.607Z,100311.47
2022-07-29T02:54:48.248Z,100316.91
2022-07-29T02:58:00.932Z,100311.75
2022-07-29T03:01:20.917Z,100319.38
2022-07-29T03:04:26.773Z,100312.28
2022-07-29T03:07:30.969Z,100321.66
2022-07-29T03:10:34.878Z,100322.25
2022-07-29T03:13:38.563Z,100316.16
2022-07-29T03:16:41.680Z,100317.47
2022-07-29T03:19:44.970Z,100320.94
2022-07-29T03:22:50.030Z,100322.44
2022-07-29T03:25:53.684Z,100322.69
2022-07-29T03:28:57.100Z,100322.69
2022-07-29T03:32:00.011Z,100331.50
2022-07-29T03:35:03.152Z,100325.16
2022-07-29T03:38:06.045Z,100322.25
2022-07-29T03:41:11.753Z,100326.59
2022-07-29T03:44:16.331Z,100316.03
2022-07-29T03:47:26.997Z,100316.84
2022-07-29T03:50:47.147Z,100324.56
2022-07-29T03:53:49.663Z,100319.91
2022-07-29T03:56:54.345Z,100333.03
2022-07-29T03:59:57.668Z,100333.72
2022-07-29T04:03:01.141Z,100335.03
2022-07-29T04:06:08.996Z,100339.03
2022-07-29T04:09:11.926Z,100334.22
2022-07-29T04:12:14.762Z,100329.97
2022-07-29T04:15:17.277Z,100343.00
2022-07-29T04:18:20.031Z,100335.28
2022-07-29T04:21:22.833Z,100339.94
2022-07-29T04:24:25.751Z,100348.87
2022-07-29T04:27:28.277Z,100340.91
2022-07-29T04:30:34.304Z,100338.00
2022-07-29T04:33:36.808Z,100340.44
2022-07-29T04:36:39.599Z,100339.72
2022-07-29T04:39:42.032Z,100338.87
2022-07-29T04:42:46.530Z,100339.59
2022-07-29T04:45:50.747Z,100343.94
2022-07-29T04:48:53.640Z,100336.84
2022-07-29T04:51:56.171Z,100345.41
2022-07-29T04:54:58.964Z,100347.50
2022-07-29T04:58:01.552Z,100343.03
2022-07-29T05:01:05.532Z,100344.72
2022-07-29T05:04:08.231Z,100345.44
2022-07-29T05:07:11.028Z,100349.84
2022-07-29T05:10:13.559Z,100348.25
2022-07-29T05:13:17.101Z,100353.59
2022-07-29T05:16:19.676Z,100354.44
2022-07-29T05:19:22.467Z,100344.63
2022-07-29T05:22:24.917Z,100349.84
2022-07-29T05:25:43.207Z,100342.22
2022-07-29T05:28:47.046Z,100348.97
2022-07-29T05:31:49.909Z,100344.78
2022-07-29T05:34:52.426Z,100356.25
2022-07-29T05:37:55.225Z,100349.78
2022-07-29T05:40:59.863Z,100344.00
2022-07-29T05:44:03.189Z,100359.56
2022-07-29T05:47:07.452Z,100352.09
2022-07-29T05:50:11.291Z,100354.69
2022-07-29T05:53:20.081Z,100355.91
2022-07-29T05:56:23.328Z,100349.44
2022-07-29T05:59:30.185Z,100355.59
2022-07-29T06:02:33.365Z,100359.53
2022-07-29T06:05:36.490Z,100354.63
2022-07-29T06:08:39.531Z,100357.62
2022-07-29T06:11:42.599Z,100353.56
2022-07-29T06:14:45.131Z,100360.09
2022-07-29T06:17:59.194Z,100362.94
2022-07-29T06:21:09.633Z,100359.41
2022-07-29T06:24:14.046Z,100366.50
2022-07-29T06:27:17.329Z,100363.56
2022-07-29T06:30:20.238Z,100362.56
2022-07-29T06:33:22.849Z,100366.66
2022-07-29T06:36:25.887Z,100355.91
2022-07-29T06:39:28.941Z,100368.12
2022-07-29T06:42:31.686Z,100367.22
2022-07-29T06:45:37.236Z,100375.00
2022-07-29T06:48:41.597Z,100372.34
2022-07-29T06:51:44.133Z,100374.62
2022-07-29T06:54:49.078Z,100381.03
2022-07-29T06:57:52.308Z,100379.47
2022-07-29T07:00:56.784Z,100370.53
2022-07-29T07:03:59.350Z,100376.75
2022-07-29T07:07:02.183Z,100365.66
2022-07-29T07:10:05.447Z,100371.66
2022-07-29T07:13:08.377Z,100377.62
2022-07-29T07:16:11.330Z,100375.72
2022-07-29T07:19:14.887Z,100367.34
2022-07-29T07:22:17.366Z,100366.91
2022-07-29T07:25:20.242Z,100371.34
2022-07-29T07:28:25.077Z,100361.41
2022-07-29T07:31:28.409Z,100359.34
2022-07-29T07:34:31.164Z,100361.09
2022-07-29T07:37:34.506Z,100360.25
2022-07-29T07:40:37.003Z,100350.88
2022-07-29T07:43:41.119Z,100368.03
2022-07-29T07:46:45.875Z,100363.13
2022-07-29T07:49:48.688Z,100352.09
2022-07-29T07:52:53.733Z,100364.50
2022-07-29T07:56:12.974Z,100361.31
2022-07-29T07:59:15.702Z,100367.44
2022-07-29T08:02:18.695Z,100351.12
2022-07-29T08:05:21.784Z,100352.91
2022-07-29T08:08:24.404Z,100349.91
2022-07-29T08:11:27.531Z,100344.72
2022-07-29T08:14:32.015Z,100347.34
2022-07-29T08:17:35.411Z,100350.62
2022-07-29T08:20:39.896Z,100346.81
2022-07-29T08:23:53.164Z,100349.19
2022-07-29T08:27:01.378Z,100347.78
2022-07-29T08:30:05.769Z,100347.78
2022-07-29T08:33:08.374Z,100341.22
2022-07-29T08:36:11.199Z,100353.00
2022-07-29T08:39:13.682Z,100338.72
2022-07-29T08:42:17.899Z,100345.00
2022-07-29T08:45:22.938Z,100348.66
2022-07-29T08:48:26.193Z,100344.31
2022-07-29T08:51:29.292Z,100338.94
2022-07-29T08:54:33.338Z,100343.78
2022-07-29T08:57:37.402Z,100330.59
2022-07-29T09:00:44.591Z,100336.06
2022-07-29T09:03:48.417Z,100328.66
2022-07-29T09:06:55.431Z,100333.22
2022-07-29T09:09:58.140Z,100327.31
2022-07-29T09:13:01.002Z,100332.13
2022-07-29T09:16:08.916Z,100324.41
2022-07-29T09:19:24.997Z,100325.88
2022-07-29T09:22:37.671Z,100324.72
2022-07-29T09:25:43.150Z,100311.56
2022-07-29T09:28:45.638Z,100320.12
2022-07-29T09:31:50.714Z,100316.13
2022-07-29T09:35:20.285Z,100314.91
2022-07-29T09:38:23.314Z,100308.44
2022-07-29T09:41:26.327Z,100299.88
2022-07-29T09:44:44.756Z,100298.03
2022-07-29T09:47:50.386Z,100293.78
2022-07-29T09:50:53.558Z,100294.84
2022-07-29T09:53:56.108Z,100290.25
2022-07-29T09:56:58.958Z,100279.72
2022-07-29T10:00:10.775Z,100277.44
2022-07-29T10:03:16.671Z,100270.66
2022-07-29T10:06:19.884Z,100268.84
2022-07-29T10:09:22.643Z,100266.94
2022-07-29T10:12:25.700Z,100272.56
2022-07-29T10:15:31.317Z,100273.34
2022-07-29T10:18:34.962Z,100271.50
2022-07-29T10:21:43.590Z,100264.03
2022-07-29T10:24:46.742Z,100255.94
2022-07-29T10:27:52.074Z,100265.56
2022-07-29T10:31:02.838Z,100257.53
2022-07-29T10:34:18.191Z,100247.13
2022-07-29T10:37:25.090Z,100249.88
2022-07-29T10:40:57.325Z,100250.50
2022-07-29T10:44:14.759Z,100239.00
2022-07-29T10:47:27.506Z,100245.84
2022-07-29T10:50:54.231Z,100245.81
2022-07-29T10:54:00.765Z,100231.88
2022-07-29T10:57:15.968Z,100240.03
2022-07-29T11:00:18.449Z,100222.63
2022-07-29T11:03:49.292Z,100223.81
2022-07-29T11:07:04.028Z,100216.56
2022-07-29T11:10:16.458Z,100222.28
2022-07-29T11:13:44.151Z,100218.19
2022-07-29T11:17:05.981Z,100220.88
2022-07-29T11:20:34.229Z,100215.03
2022-07-29T11:23:42.818Z,100214.81
2022-07-29T11:26:46.449Z,100209.44
2022-07-29T11:29:57.361Z,100208.94
2022-07-29T11:33:01.435Z,100202.78
2022-07-29T11:36:16.796Z,100194.75
2022-07-29T11:39:27.049Z,100193.91
2022-07-29T11:42:42.112Z,100184.88
2022-07-29T11:45:47.325Z,100189.22
2022-07-29T11:48:50.227Z,100184.53
2022-07-29T11:51:56.847Z,100178.00
2022-07-29T11:55:09.886Z,100178.16
2022-07-29T11:58:13.192Z,100175.94
2022-07-29T12:01:18.408Z,100175.41
2022-07-29T12:04:21.543Z,100172.25
2022-07-29T12:07:32.571Z,100170.41
2022-07-29T12:10:39.094Z,100171.81
2022-07-29T12:13:41.647Z,100169.44
2022-07-29T12:16:44.510Z,100167.66
2022-07-29T12:19:47.221Z,100155.97
2022-07-29T12:22:54.834Z,100149.31
2022-07-29T12:25:59.149Z,100146.00
2022-07-29T12:29:03.208Z,100142.66
2022-07-29T12:32:14.416Z,100141.63
2022-07-29T12:35:22.159Z,100136.94
2022-07-29T12:38:24.705Z,100138.50
2022-07-29T12:41:30.135Z,100130.28
2022-07-29T12:44:50.077Z,100121.84
2022-07-29T12:47:53.536Z,100109.16
2022-07-29T12:51:02.261Z,100111.84
2022-07-29T12:54:11.644Z,100103.97
2022-07-29T12:57:20.186Z,100113.75
2022-07-29T13:00:25.273Z,100104.66
2022-07-29T13:03:28.124Z,100108.25
2022-07-29T13:06:45.885Z,100097.41
2022-07-29T13:09:50.821Z,100095.84
2022-07-29T13:13:07.468Z,100091.63
2022-07-29T13:16:12.597Z,100085.44
2022-07-29T13:19:15.438Z,100079.03
2022-07-29T13:22:20.379Z,100076.91
2022-07-29T13:25:31.989Z,100076.78
2022-07-29T13:28:35.252Z,100073.97
2022-07-29T13:31:38.087Z,100065.97
2022-07-29T13:34:41.787Z,100066.00
2022-07-29T13:37:44.716Z,100066.84
2022-07-29T13:40:47.389Z,100070.22
2022-07-29T13:43:50.226Z,100058.13
2022-07-29T13:46:52.718Z,100056.00
2022-07-29T13:49:56.325Z,100043.50
2022-07-29T13:52:58.776Z,100046.31
2022-07-29T13:56:01.724Z,100045.75
2022-07-29T13:59:04.317Z,100033.56
2022-07-29T14:02:07.643Z,100031.84
2022-07-29T14:05:11.112Z,100037.19
2022-07-29T14:08:13.715Z,100029.47
2022-07-29T14:11:16.587Z,100025.53
2022-07-29T14:14:19.828Z,100023.84
2022-07-29T14:17:23.741Z,100019.69
2022-07-29T14:20:26.939Z,100013.06
2022-07-29T14:23:29.918Z,100006.97
2022-07-29T14:26:32.854Z,100005.59
2022-07-29T14:29:38.111Z,100014.31
2022-07-29T14:32:41.250Z,100013.00
2022-07-29T14:35:44.667Z,100010.59
2022-07-29T14:38:47.270Z,100004.16
2022-07-29T14:41:52.010Z,99987.13
2022-07-29T14:44:54.777Z,99996.62
2022-07-29T14:47:57.665Z,99987.19
2022-07-29T14:51:04.705Z,99979.94
2022-07-29T14:54:08.088Z,99983.56
2022-07-29T14:57:10.666Z,99974.97
2022-07-29T15:00:15.188Z,99975.34
2022-07-29T15:03:23.827Z,99966.56
2022-07-29T15:06:27.768Z,99957.69
2022-07-29T15:09:30.323Z,99952.78
2022-07-29T15:12:34.057Z,99956.13
2022-07-29T15:15:36.589Z,99960.97
2022-07-29T15:18:39.515Z,99955.41
2022-07-29T15:21:48.066Z,99954.41
2022-07-29T15:24:51.205Z,99957.75
2022-07-29T15:27:55.657Z,99948.31
2022-07-29T15:31:01.925Z,99946.16
2022-07-29T15:34:06.334Z,99946.03
2022-07-29T15:37:09.316Z,99948.88
2022-07-29T15:40:12.054Z,99950.00
2022-07-29T15:43:15.032Z,99949.69
2022-07-29T15:46:38.400Z,99940.63
2022-07-29T15:49:47.266Z,99935.03
2022-07-29T15:52:51.924Z,99926.50
2022-07-29T15:55:54.753Z,99934.47
2022-07-29T15:59:00.156Z,99926.06
2022-07-29T16:02:04.993Z,99927.16
2022-07-29T16:05:09.582Z,99919.69
2022-07-29T16:08:12.195Z,99918.22
2022-07-29T16:11:15.039Z,99919.94
2022-07-29T16:14:18.276Z,99914.91
2022-07-29T16:17:21.302Z,99924.84
2022-07-29T16:20:24.039Z,99928.47
2022-07-29T16:23:27.094Z,99927.66
2022-07-29T16:26:29.668Z,99924.59
2022-07-29T16:29:32.581Z,99914.78
2022-07-29T16:32:35.500Z,99917.66
2022-07-29T16:35:40.379Z,99913.97
2022-07-29T16:38:47.237Z,99924.81
2022-07-29T16:41:50.365Z,99921.28
2022-07-29T16:44:53.008Z,99916.47
2022-07-29T16:48:00.154Z,99917.91
2022-07-29T16:51:03.476Z,99913.56
2022-07-29T16:54:06.441Z,99918.41
2022-07-29T16:57:09.108Z,99910.06
2022-07-29T17:00:12.900Z,99918.47
2022-07-29T17:03:15.731Z,99915.16
2022-07-29T17:06:18.725Z,99908.06
2022-07-29T17:09:21.366Z,99909.94
2022-07-29T17:12:24.794Z,99909.09
2022-07-29T17:15:27.491Z,99910.06
2022-07-29T17:18:31.970Z,99914.75
2022-07-29T17:21:34.498Z,99922.13
2022-07-29T17:24:38.241Z,99918.75
2022-07-29T17:27:42.565Z,99917.28
2022-07-29T17:30:45.343Z,99925.37
2022-07-29T17:33:47.861Z,99923.09
2022-07-29T17:36:50.838Z,99917.59
2022-07-29T17:39:57.319Z,99922.25
2022-07-29T17:43:04.817Z,99920.22
2022-07-29T17:46:09.053Z,99911.16
2022-07-29T17:49:12.260Z,99915.00
2022-07-29T17:52:15.943Z,99909.81
2022-07-29T17:55:18.969Z,99915.28
2022-07-29T17:58:22.002Z,99915.59
2022-07-29T18:01:24.967Z,99910.69
2022-07-29T18:04:28.668Z,99914.88
2022-07-29T18:07:31.299Z,99919.50
2022-07-29T18:10:34.196Z,99929.47
2022-07-29T18:13:36.700Z,99927.97
2022-07-29T18:16:39.747Z,99930.28
2022-07-29T18:19:42.384Z,99925.44
2022-07-29T18:22:45.361Z,99936.47
2022-07-29T18:25:48.020Z,99930.53
2022-07-29T18:28:52.380Z,99940.28
2022-07-29T18:31:55.275Z,99936.38
2022-07-29T18:34:58.270Z,99943.06
2022-07-29T18:38:03.088Z,99945.59
2022-07-29T18:41:06.313Z,99947.75
2022-07-29T18:44:10.049Z,99955.19
2022-07-29T18:47:18.475Z,99962.78
2022-07-29T18:50:28.867Z,99979.81
2022-07-29T18:53:32.227Z,99986.37
2022-07-29T18:56:39.505Z,99984.66
2022-07-29T18:59:43.392Z,99989.97
2022-07-29T19:02:46.090Z,99998.88
2022-07-29T19:05:49.457Z,100006.84
2022-07-29T19:08:52.487Z,100006.44
2022-07-29T19:11:58.000Z,100014.50
2022-07-29T19:15:03.601Z,100017.47
2022-07-29T19:18:07.209Z,100011.94
2022-07-29T19:21:09.868Z,100017.00
2022-07-29T19:24:15.591Z,100023.78
2022-07-29T19:27:18.891Z,100026.94
2022-07-29T19:30:22.152Z,100021.91
2022-07-29T19:33:24.942Z,100016.75
2022-07-29T19:36:27.850Z,100017.66
2022-07-29T19:39:34.981Z,100013.06
2022-07-29T19:42:38.539Z,100014.53
2022-07-29T19:45:41.117Z,100016.78
2022-07-29T19:48:44.536Z,100019.66
2022-07-29T19:51:47.338Z,100010.25
2022-07-29T19:54:50.228Z,100013.37
2022-07-29T19:57:52.877Z,100015.06
2022-07-29T20:00:55.984Z,100008.59
2022-07-29T20:03:58.891Z,100009.56
2022-07-29T20:07:01.955Z,100004.78
2022-07-29T20:10:06.742Z,100013.59
2022-07-29T20:13:09.543Z,100020.19
2022-07-29T20:16:12.642Z,100015.88
2022-07-29T20:19:15.284Z,100012.12
2022-07-29T20:22:21.223Z,100022.78
2022-07-29T20:25:24.382Z,100022.06
2022-07-29T20:28:27.623Z,100025.38
2022-07-29T20:31:30.628Z,100036.81
2022-07-29T20:34:33.815Z,100029.25
2022-07-29T20:37:52.175Z,100040.13
2022-07-29T20:40:59.162Z,100043.94
2022-07-29T20:44:03.130Z,100048.62
2022-07-29T20:47:06.100Z,100045.62
2022-07-29T20:50:10.111Z,100039.69
2022-07-29T20:53:13.619Z,100044.03
2022-07-29T20:56:16.157Z,100050.28
2022-07-29T20:59:19.247Z,100056.25
2022-07-29T21:02:21.780Z,100064.16
2022-07-29T21:05:24.788Z,100061.72
2022-07-29T21:08:27.887Z,100066.66
2022-07-29T21:11:44.345Z,100069.66
2022-07-29T21:14:48.115Z,100062.31
2022-07-29T21:17:52.727Z,100075.06
2022-07-29T21:20:55.358Z,100073.47
2022-07-29T21:23:58.337Z,100064.25
2022-07-29T21:27:21.191Z,100066.66
2022-07-29T21:30:24.766Z,100073.44
2022-07-29T21:33:29.463Z,100061.75
2022-07-29T21:36:48.784Z,100070.09
2022-07-29T21:39:51.763Z,100072.03
2022-07-29T21:42:54.737Z,100084.47
2022-07-29T21:46:03.567Z,100080.09
2022-07-29T21:49:06.695Z,100080.91
2022-07-29T21:52:09.225Z,100089.28
2022-07-29T21:55:12.269Z,100093.84
2022-07-29T21:58:17.797Z,100107.69
2022-07-29T22:01:20.983Z,100108.72
2022-07-29T22:04:24.103Z,100110.34
2022-07-29T22:07:54.059Z,100114.87
2022-07-29T22:10:56.102Z,100110.50
2022-07-29T22:13:58.782Z,100112.66
2022-07-29T22:17:02.030Z,100121.56
2022-07-29T22:20:06.087Z,100122.84
2022-07-29T22:23:10.958Z,100112.19
2022-07-29T22:26:13.799Z,100119.78
2022-07-29T22:29:20.864Z,100120.81
2022-07-29T22:32:26.736Z,100124.59
2022-07-29T22:35:32.592Z,100127.00
2022-07-29T22:38:35.139Z,100127.75
2022-07-29T22:41:37.964Z,100122.00
2022-07-29T22:44:40.545Z,100111.91
2022-07-29T22:47:48.240Z,100120.25
2022-07-29T22:50:51.632Z,100115.34
2022-07-29T22:53:54.543Z,100113.66
2022-07-29T22:56:57.357Z,100108.47
2022-07-29T23:00:02.385Z,100107.09
2022-07-29T23:03:06.091Z,100105.16
2022-07-29T23:06:08.980Z,100101.84
2022-07-29T23:09:11.529Z,100093.16
2022-07-29T23:12:14.479Z,100099.34
2022-07-29T23:15:17.187Z,100099.03
2022-07-29T23:18:21.050Z,100093.91
2022-07-29T23:21:23.700Z,100093.84
2022-07-29T23:39:40.828Z,100084.16
2022-07-29T23:42:44.215Z,100071.03
2022-07-29T23:45:48.750Z,100070.47
2022-07-29T23:48:51.948Z,100058.25
2022-07-29T23:51:54.499Z,100057.19
2022-07-29T23:55:36.430Z,100055.03
2022-07-29T23:58:19.998Z,100055.25
